sensor_id;sensor_type;location;lat;lon;timestamp;P1;durP1;ratioP1;P2;durP2;ratioP2
6868;SDS011;3473;42.604;23.496;2022-08-19T00:01:22;2.78;;;1.30;;
6868;SDS011;3473;42.604;23.496;2022-08-19T00:02:54;1.30;;;1.05;;
6868;SDS011;3473;42.604;23.496;2022-08-19T00:04:27;0.85;;;0.70;;
6868;SDS011;3473;42.604;23.496;2022-08-19T00:06:01;1.30;;;1.10;;
6868;SDS011;3473;42.604;23.496;2022-08-19T00:07:33;1.15;;;0.88;;
6868;SDS011;3473;42.604;23.496;2022-08-19T00:09:06;13.25;;;1.02;;
6868;SDS011;3473;42.604;23.496;2022-08-19T00:10:39;2.25;;;1.30;;
6868;SDS011;3473;42.604;23.496;2022-08-19T00:12:10;1.38;;;0.90;;
6868;SDS011;3473;42.604;23.496;2022-08-19T00:13:42;1.02;;;0.93;;
6868;SDS011;3473;42.604;23.496;2022-08-19T00:15:16;1.52;;;1.42;;
6868;SDS011;3473;42.604;23.496;2022-08-19T00:16:49;1.98;;;1.30;;
6868;SDS011;3473;42.604;23.496;2022-08-19T00:18:24;1.20;;;1.00;;
6868;SDS011;3473;42.604;23.496;2022-08-19T00:19:55;0.70;;;0.70;;
6868;SDS011;3473;42.604;23.496;2022-08-19T00:21:28;0.95;;;0.95;;
6868;SDS011;3473;42.604;23.496;2022-08-19T00:23:00;1.58;;;1.25;;
6868;SDS011;3473;42.604;23.496;2022-08-19T00:24:34;2.63;;;1.73;;
6868;SDS011;3473;42.604;23.496;2022-08-19T00:26:05;1.67;;;1.00;;
6868;SDS011;3473;42.604;23.496;2022-08-19T00:27:38;1.55;;;1.23;;
6868;SDS011;3473;42.604;23.496;2022-08-19T00:29:11;1.33;;;1.00;;
6868;SDS011;3473;42.604;23.496;2022-08-19T00:30:44;1.02;;;0.98;;
6868;SDS011;3473;42.604;23.496;2022-08-19T00:32:16;1.45;;;1.20;;
6868;SDS011;3473;42.604;23.496;2022-08-19T00:33:47;2.00;;;1.20;;
6868;SDS011;3473;42.604;23.496;2022-08-19T00:35:20;2.77;;;1.10;;
6868;SDS011;3473;42.604;23.496;2022-08-19T00:36:53;2.53;;;1.40;;
6868;SDS011;3473;42.604;23.496;2022-08-19T00:38:25;1.27;;;1.17;;
6868;SDS011;3473;42.604;23.496;2022-08-19T00:39:57;2.47;;;1.30;;
6868;SDS011;3473;42.604;23.496;2022-08-19T00:41:29;1.55;;;1.05;;
6868;SDS011;3473;42.604;23.496;2022-08-19T00:43:01;1.83;;;1.23;;
6868;SDS011;3473;42.604;23.496;2022-08-19T00:44:39;1.40;;;1.17;;
6868;SDS011;3473;42.604;23.496;2022-08-19T00:46:11;1.20;;;1.10;;
6868;SDS011;3473;42.604;23.496;2022-08-19T00:47:43;2.33;;;1.17;;
6868;SDS011;3473;42.604;23.496;2022-08-19T00:49:16;1.33;;;1.20;;
6868;SDS011;3473;42.604;23.496;2022-08-19T00:50:52;1.10;;;0.80;;
6868;SDS011;3473;42.604;23.496;2022-08-19T00:52:28;2.80;;;0.80;;
6868;SDS011;3473;42.604;23.496;2022-08-19T00:54:03;1.87;;;1.27;;
6868;SDS011;3473;42.604;23.496;2022-08-19T00:55:35;1.57;;;1.23;;
6868;SDS011;3473;42.604;23.496;2022-08-19T00:57:09;2.20;;;1.33;;
6868;SDS011;3473;42.604;23.496;2022-08-19T00:58:43;1.13;;;0.93;;
6868;SDS011;3473;42.604;23.496;2022-08-19T01:00:17;1.93;;;1.13;;
6868;SDS011;3473;42.604;23.496;2022-08-19T01:01:49;1.07;;;0.97;;
6868;SDS011;3473;42.604;23.496;2022-08-19T01:03:21;1.33;;;1.00;;
6868;SDS011;3473;42.604;23.496;2022-08-19T01:04:54;2.20;;;1.30;;
6868;SDS011;3473;42.604;23.496;2022-08-19T01:06:26;1.00;;;1.00;;
6868;SDS011;3473;42.604;23.496;2022-08-19T01:08:00;1.63;;;0.90;;
6868;SDS011;3473;42.604;23.496;2022-08-19T01:09:34;1.33;;;1.20;;
6868;SDS011;3473;42.604;23.496;2022-08-19T01:11:05;1.70;;;1.40;;
6868;SDS011;3473;42.604;23.496;2022-08-19T01:12:38;1.27;;;1.00;;
6868;SDS011;3473;42.604;23.496;2022-08-19T01:14:11;2.97;;;1.30;;
6868;SDS011;3473;42.604;23.496;2022-08-19T01:15:45;1.33;;;1.03;;
6868;SDS011;3473;42.604;23.496;2022-08-19T01:17:19;2.40;;;1.20;;
6868;SDS011;3473;42.604;23.496;2022-08-19T01:18:52;3.17;;;1.17;;
6868;SDS011;3473;42.604;23.496;2022-08-19T01:20:23;1.43;;;1.10;;
6868;SDS011;3473;42.604;23.496;2022-08-19T01:21:57;1.93;;;1.27;;
6868;SDS011;3473;42.604;23.496;2022-08-19T01:23:34;1.43;;;1.03;;
6868;SDS011;3473;42.604;23.496;2022-08-19T01:25:16;1.57;;;1.30;;
6868;SDS011;3473;42.604;23.496;2022-08-19T01:26:51;1.83;;;0.93;;
6868;SDS011;3473;42.604;23.496;2022-08-19T01:28:24;1.37;;;1.00;;
6868;SDS011;3473;42.604;23.496;2022-08-19T01:29:58;2.20;;;1.60;;
6868;SDS011;3473;42.604;23.496;2022-08-19T01:31:31;1.60;;;1.30;;
6868;SDS011;3473;42.604;23.496;2022-08-19T01:33:02;1.23;;;1.13;;
6868;SDS011;3473;42.604;23.496;2022-08-19T01:34:35;2.73;;;1.57;;
6868;SDS011;3473;42.604;23.496;2022-08-19T01:36:08;2.27;;;1.73;;
6868;SDS011;3473;42.604;23.496;2022-08-19T01:37:46;2.17;;;1.30;;
6868;SDS011;3473;42.604;23.496;2022-08-19T01:39:23;1.80;;;0.90;;
6868;SDS011;3473;42.604;23.496;2022-08-19T01:40:56;1.70;;;1.40;;
6868;SDS011;3473;42.604;23.496;2022-08-19T01:42:28;1.93;;;1.30;;
6868;SDS011;3473;42.604;23.496;2022-08-19T01:44:02;0.70;;;0.70;;
6868;SDS011;3473;42.604;23.496;2022-08-19T01:45:35;2.53;;;1.58;;
6868;SDS011;3473;42.604;23.496;2022-08-19T01:47:07;1.00;;;1.00;;
6868;SDS011;3473;42.604;23.496;2022-08-19T01:48:40;1.40;;;1.30;;
6868;SDS011;3473;42.604;23.496;2022-08-19T01:50:13;0.80;;;0.73;;
6868;SDS011;3473;42.604;23.496;2022-08-19T01:51:45;1.50;;;1.20;;
6868;SDS011;3473;42.604;23.496;2022-08-19T01:53:17;0.80;;;0.80;;
6868;SDS011;3473;42.604;23.496;2022-08-19T01:54:50;1.80;;;1.17;;
6868;SDS011;3473;42.604;23.496;2022-08-19T01:56:22;2.70;;;1.40;;
6868;SDS011;3473;42.604;23.496;2022-08-19T01:57:55;2.63;;;1.73;;
6868;SDS011;3473;42.604;23.496;2022-08-19T01:59:31;4.10;;;1.07;;
6868;SDS011;3473;42.604;23.496;2022-08-19T02:01:03;1.57;;;1.40;;
6868;SDS011;3473;42.604;23.496;2022-08-19T02:02:36;1.70;;;1.30;;
6868;SDS011;3473;42.604;23.496;2022-08-19T02:04:08;1.60;;;1.27;;
6868;SDS011;3473;42.604;23.496;2022-08-19T02:05:39;2.07;;;1.30;;
6868;SDS011;3473;42.604;23.496;2022-08-19T02:07:11;1.23;;;1.13;;
6868;SDS011;3473;42.604;23.496;2022-08-19T02:08:42;2.10;;;1.13;;
6868;SDS011;3473;42.604;23.496;2022-08-19T02:10:19;1.97;;;1.47;;
6868;SDS011;3473;42.604;23.496;2022-08-19T02:11:51;2.60;;;1.17;;
6868;SDS011;3473;42.604;23.496;2022-08-19T02:13:23;1.70;;;1.10;;
6868;SDS011;3473;42.604;23.496;2022-08-19T02:14:58;1.20;;;0.83;;
6868;SDS011;3473;42.604;23.496;2022-08-19T02:16:29;1.43;;;1.00;;
6868;SDS011;3473;42.604;23.496;2022-08-19T02:18:01;0.83;;;0.73;;
6868;SDS011;3473;42.604;23.496;2022-08-19T02:19:33;1.30;;;1.00;;
6868;SDS011;3473;42.604;23.496;2022-08-19T02:21:05;1.40;;;1.30;;
6868;SDS011;3473;42.604;23.496;2022-08-19T02:22:37;0.70;;;0.70;;
6868;SDS011;3473;42.604;23.496;2022-08-19T02:24:09;2.07;;;1.20;;
6868;SDS011;3473;42.604;23.496;2022-08-19T02:25:42;2.60;;;1.43;;
6868;SDS011;3473;42.604;23.496;2022-08-19T02:27:15;2.30;;;1.10;;
6868;SDS011;3473;42.604;23.496;2022-08-19T02:28:46;1.17;;;0.90;;
6868;SDS011;3473;42.604;23.496;2022-08-19T02:30:19;2.10;;;1.13;;
6868;SDS011;3473;42.604;23.496;2022-08-19T02:31:51;2.10;;;1.43;;
6868;SDS011;3473;42.604;23.496;2022-08-19T02:33:22;1.80;;;1.10;;
6868;SDS011;3473;42.604;23.496;2022-08-19T02:34:53;1.00;;;0.90;;
6868;SDS011;3473;42.604;23.496;2022-08-19T02:36:24;1.80;;;1.13;;
6868;SDS011;3473;42.604;23.496;2022-08-19T02:37:58;2.10;;;1.60;;
6868;SDS011;3473;42.604;23.496;2022-08-19T02:39:47;1.53;;;1.30;;
6868;SDS011;3473;42.604;23.496;2022-08-19T02:41:19;2.47;;;1.37;;
6868;SDS011;3473;42.604;23.496;2022-08-19T02:42:52;1.70;;;1.03;;
6868;SDS011;3473;42.604;23.496;2022-08-19T02:44:23;1.23;;;1.00;;
6868;SDS011;3473;42.604;23.496;2022-08-19T02:45:55;2.50;;;1.20;;
6868;SDS011;3473;42.604;23.496;2022-08-19T02:47:26;2.30;;;1.10;;
6868;SDS011;3473;42.604;23.496;2022-08-19T02:48:59;1.27;;;0.90;;
6868;SDS011;3473;42.604;23.496;2022-08-19T02:50:32;3.27;;;1.33;;
6868;SDS011;3473;42.604;23.496;2022-08-19T02:52:02;1.17;;;1.07;;
6868;SDS011;3473;42.604;23.496;2022-08-19T02:53:34;0.90;;;0.90;;
6868;SDS011;3473;42.604;23.496;2022-08-19T02:55:07;1.47;;;0.93;;
6868;SDS011;3473;42.604;23.496;2022-08-19T02:56:40;1.47;;;1.20;;
6868;SDS011;3473;42.604;23.496;2022-08-19T02:58:14;2.10;;;1.20;;
6868;SDS011;3473;42.604;23.496;2022-08-19T02:59:46;3.13;;;1.30;;
6868;SDS011;3473;42.604;23.496;2022-08-19T03:01:21;1.63;;;0.90;;
6868;SDS011;3473;42.604;23.496;2022-08-19T03:02:54;1.30;;;1.20;;
6868;SDS011;3473;42.604;23.496;2022-08-19T03:04:26;1.27;;;1.10;;
6868;SDS011;3473;42.604;23.496;2022-08-19T03:06:05;1.97;;;1.20;;
6868;SDS011;3473;42.604;23.496;2022-08-19T03:07:38;2.30;;;1.30;;
6868;SDS011;3473;42.604;23.496;2022-08-19T03:09:10;3.03;;;1.50;;
6868;SDS011;3473;42.604;23.496;2022-08-19T03:10:42;2.70;;;1.20;;
6868;SDS011;3473;42.604;23.496;2022-08-19T03:12:16;2.50;;;1.40;;
6868;SDS011;3473;42.604;23.496;2022-08-19T03:13:48;1.63;;;1.23;;
6868;SDS011;3473;42.604;23.496;2022-08-19T03:15:21;2.17;;;1.23;;
6868;SDS011;3473;42.604;23.496;2022-08-19T03:16:51;1.20;;;1.10;;
6868;SDS011;3473;42.604;23.496;2022-08-19T03:18:23;2.00;;;0.93;;
6868;SDS011;3473;42.604;23.496;2022-08-19T03:19:55;1.73;;;1.57;;
6868;SDS011;3473;42.604;23.496;2022-08-19T03:21:28;1.33;;;1.07;;
6868;SDS011;3473;42.604;23.496;2022-08-19T03:23:01;1.00;;;0.90;;
6868;SDS011;3473;42.604;23.496;2022-08-19T03:24:33;2.10;;;1.13;;
6868;SDS011;3473;42.604;23.496;2022-08-19T03:26:05;1.20;;;1.10;;
6868;SDS011;3473;42.604;23.496;2022-08-19T03:27:37;1.30;;;1.20;;
6868;SDS011;3473;42.604;23.496;2022-08-19T03:29:09;1.17;;;1.07;;
6868;SDS011;3473;42.604;23.496;2022-08-19T03:30:41;1.43;;;1.10;;
6868;SDS011;3473;42.604;23.496;2022-08-19T03:32:14;2.17;;;1.23;;
6868;SDS011;3473;42.604;23.496;2022-08-19T03:33:46;2.27;;;1.17;;
6868;SDS011;3473;42.604;23.496;2022-08-19T03:35:17;1.17;;;1.07;;
6868;SDS011;3473;42.604;23.496;2022-08-19T03:36:50;1.80;;;1.27;;
6868;SDS011;3473;42.604;23.496;2022-08-19T03:38:22;3.30;;;1.10;;
6868;SDS011;3473;42.604;23.496;2022-08-19T03:39:53;1.40;;;1.20;;
6868;SDS011;3473;42.604;23.496;2022-08-19T03:41:26;2.50;;;1.37;;
6868;SDS011;3473;42.604;23.496;2022-08-19T03:43:00;2.53;;;1.37;;
6868;SDS011;3473;42.604;23.496;2022-08-19T03:44:32;2.03;;;1.07;;
6868;SDS011;3473;42.604;23.496;2022-08-19T03:46:07;1.87;;;1.37;;
6868;SDS011;3473;42.604;23.496;2022-08-19T03:47:41;2.90;;;1.20;;
6868;SDS011;3473;42.604;23.496;2022-08-19T03:49:12;1.50;;;1.10;;
6868;SDS011;3473;42.604;23.496;2022-08-19T03:50:44;2.50;;;1.40;;
6868;SDS011;3473;42.604;23.496;2022-08-19T03:52:17;2.67;;;1.27;;
6868;SDS011;3473;42.604;23.496;2022-08-19T03:53:55;1.83;;;1.23;;
6868;SDS011;3473;42.604;23.496;2022-08-19T03:55:28;1.33;;;1.07;;
6868;SDS011;3473;42.604;23.496;2022-08-19T03:57:00;2.20;;;1.43;;
6868;SDS011;3473;42.604;23.496;2022-08-19T03:58:34;1.23;;;1.10;;
6868;SDS011;3473;42.604;23.496;2022-08-19T04:00:08;4.53;;;1.40;;
6868;SDS011;3473;42.604;23.496;2022-08-19T04:01:41;0.90;;;0.83;;
6868;SDS011;3473;42.604;23.496;2022-08-19T04:03:12;2.87;;;1.70;;
6868;SDS011;3473;42.604;23.496;2022-08-19T04:04:44;1.70;;;1.37;;
6868;SDS011;3473;42.604;23.496;2022-08-19T04:06:16;1.87;;;1.27;;
6868;SDS011;3473;42.604;23.496;2022-08-19T04:07:48;4.47;;;1.70;;
6868;SDS011;3473;42.604;23.496;2022-08-19T04:09:20;2.40;;;1.50;;
6868;SDS011;3473;42.604;23.496;2022-08-19T04:10:52;2.80;;;1.30;;
6868;SDS011;3473;42.604;23.496;2022-08-19T04:12:24;3.53;;;1.50;;
6868;SDS011;3473;42.604;23.496;2022-08-19T04:13:57;1.60;;;1.00;;
6868;SDS011;3473;42.604;23.496;2022-08-19T04:15:28;1.93;;;1.47;;
6868;SDS011;3473;42.604;23.496;2022-08-19T04:17:03;3.40;;;1.30;;
6868;SDS011;3473;42.604;23.496;2022-08-19T04:18:35;1.53;;;1.30;;
6868;SDS011;3473;42.604;23.496;2022-08-19T04:20:09;2.00;;;1.40;;
6868;SDS011;3473;42.604;23.496;2022-08-19T04:21:42;1.03;;;0.90;;
6868;SDS011;3473;42.604;23.496;2022-08-19T04:23:14;1.97;;;1.40;;
6868;SDS011;3473;42.604;23.496;2022-08-19T04:24:46;1.80;;;1.47;;
6868;SDS011;3473;42.604;23.496;2022-08-19T04:26:19;1.53;;;1.20;;
6868;SDS011;3473;42.604;23.496;2022-08-19T04:27:52;2.33;;;1.47;;
6868;SDS011;3473;42.604;23.496;2022-08-19T04:29:26;2.57;;;1.53;;
6868;SDS011;3473;42.604;23.496;2022-08-19T04:30:57;1.73;;;1.03;;
6868;SDS011;3473;42.604;23.496;2022-08-19T04:32:29;2.20;;;1.77;;
6868;SDS011;3473;42.604;23.496;2022-08-19T04:34:02;1.50;;;1.13;;
6868;SDS011;3473;42.604;23.496;2022-08-19T04:35:36;1.47;;;1.20;;
6868;SDS011;3473;42.604;23.496;2022-08-19T04:37:10;5.63;;;1.27;;
6868;SDS011;3473;42.604;23.496;2022-08-19T04:38:42;1.87;;;1.50;;
6868;SDS011;3473;42.604;23.496;2022-08-19T04:40:13;1.80;;;1.35;;
6868;SDS011;3473;42.604;23.496;2022-08-19T04:42:03;2.00;;;1.33;;
6868;SDS011;3473;42.604;23.496;2022-08-19T04:43:52;1.47;;;1.37;;
6868;SDS011;3473;42.604;23.496;2022-08-19T04:45:25;2.30;;;1.50;;
6868;SDS011;3473;42.604;23.496;2022-08-19T04:46:57;1.45;;;1.30;;
6868;SDS011;3473;42.604;23.496;2022-08-19T04:48:29;2.25;;;1.35;;
6868;SDS011;3473;42.604;23.496;2022-08-19T04:50:02;1.83;;;1.40;;
6868;SDS011;3473;42.604;23.496;2022-08-19T04:51:34;1.38;;;1.00;;
6868;SDS011;3473;42.604;23.496;2022-08-19T04:53:07;2.75;;;1.55;;
6868;SDS011;3473;42.604;23.496;2022-08-19T04:54:39;2.88;;;0.90;;
6868;SDS011;3473;42.604;23.496;2022-08-19T04:56:12;1.58;;;0.95;;
6868;SDS011;3473;42.604;23.496;2022-08-19T04:57:47;4.40;;;1.35;;
6868;SDS011;3473;42.604;23.496;2022-08-19T04:59:19;2.05;;;1.30;;
6868;SDS011;3473;42.604;23.496;2022-08-19T05:00:53;1.70;;;1.23;;
6868;SDS011;3473;42.604;23.496;2022-08-19T05:02:25;2.78;;;1.70;;
6868;SDS011;3473;42.604;23.496;2022-08-19T05:03:58;3.53;;;1.65;;
6868;SDS011;3473;42.604;23.496;2022-08-19T05:05:30;2.47;;;1.83;;
6868;SDS011;3473;42.604;23.496;2022-08-19T05:07:02;3.33;;;1.73;;
6868;SDS011;3473;42.604;23.496;2022-08-19T05:08:35;1.73;;;1.48;;
6868;SDS011;3473;42.604;23.496;2022-08-19T05:10:13;1.95;;;1.45;;
6868;SDS011;3473;42.604;23.496;2022-08-19T05:11:44;2.55;;;1.60;;
6868;SDS011;3473;42.604;23.496;2022-08-19T05:13:17;2.65;;;1.50;;
6868;SDS011;3473;42.604;23.496;2022-08-19T05:14:50;1.55;;;1.40;;
6868;SDS011;3473;42.604;23.496;2022-08-19T05:16:23;1.70;;;1.33;;
6868;SDS011;3473;42.604;23.496;2022-08-19T05:17:56;2.85;;;1.65;;
6868;SDS011;3473;42.604;23.496;2022-08-19T05:19:46;8.80;;;2.20;;
6868;SDS011;3473;42.604;23.496;2022-08-19T05:21:35;2.08;;;1.40;;
6868;SDS011;3473;42.604;23.496;2022-08-19T05:23:25;2.30;;;1.38;;
6868;SDS011;3473;42.604;23.496;2022-08-19T05:24:57;2.88;;;1.77;;
6868;SDS011;3473;42.604;23.496;2022-08-19T05:26:30;2.03;;;1.40;;
6868;SDS011;3473;42.604;23.496;2022-08-19T05:28:01;1.65;;;1.10;;
6868;SDS011;3473;42.604;23.496;2022-08-19T05:29:33;2.38;;;1.23;;
6868;SDS011;3473;42.604;23.496;2022-08-19T05:31:05;2.17;;;1.67;;
6868;SDS011;3473;42.604;23.496;2022-08-19T05:32:37;2.17;;;1.42;;
6868;SDS011;3473;42.604;23.496;2022-08-19T05:34:10;2.17;;;1.50;;
6868;SDS011;3473;42.604;23.496;2022-08-19T05:35:41;1.92;;;1.55;;
6868;SDS011;3473;42.604;23.496;2022-08-19T05:37:14;2.90;;;1.80;;
6868;SDS011;3473;42.604;23.496;2022-08-19T05:38:47;3.70;;;1.80;;
6868;SDS011;3473;42.604;23.496;2022-08-19T05:40:20;2.88;;;1.73;;
6868;SDS011;3473;42.604;23.496;2022-08-19T05:41:53;2.15;;;1.50;;
6868;SDS011;3473;42.604;23.496;2022-08-19T05:43:27;1.88;;;1.30;;
6868;SDS011;3473;42.604;23.496;2022-08-19T05:44:59;1.85;;;1.55;;
6868;SDS011;3473;42.604;23.496;2022-08-19T05:46:30;1.23;;;1.10;;
6868;SDS011;3473;42.604;23.496;2022-08-19T05:48:03;2.05;;;1.58;;
6868;SDS011;3473;42.604;23.496;2022-08-19T05:49:35;3.20;;;1.90;;
6868;SDS011;3473;42.604;23.496;2022-08-19T05:51:08;2.75;;;1.70;;
6868;SDS011;3473;42.604;23.496;2022-08-19T05:52:40;2.45;;;1.65;;
6868;SDS011;3473;42.604;23.496;2022-08-19T05:54:12;2.80;;;1.85;;
6868;SDS011;3473;42.604;23.496;2022-08-19T05:55:44;2.45;;;1.40;;
6868;SDS011;3473;42.604;23.496;2022-08-19T05:57:16;2.53;;;1.85;;
6868;SDS011;3473;42.604;23.496;2022-08-19T05:58:49;2.20;;;2.00;;
6868;SDS011;3473;42.604;23.496;2022-08-19T06:00:20;2.25;;;1.65;;
6868;SDS011;3473;42.604;23.496;2022-08-19T06:01:52;2.47;;;1.58;;
6868;SDS011;3473;42.604;23.496;2022-08-19T06:03:27;3.10;;;1.73;;
6868;SDS011;3473;42.604;23.496;2022-08-19T06:04:58;2.20;;;1.65;;
6868;SDS011;3473;42.604;23.496;2022-08-19T06:06:31;2.22;;;1.92;;
6868;SDS011;3473;42.604;23.496;2022-08-19T06:08:04;2.42;;;1.50;;
6868;SDS011;3473;42.604;23.496;2022-08-19T06:09:37;2.95;;;2.00;;
6868;SDS011;3473;42.604;23.496;2022-08-19T06:11:13;3.20;;;1.70;;
6868;SDS011;3473;42.604;23.496;2022-08-19T06:12:48;2.30;;;1.83;;
6868;SDS011;3473;42.604;23.496;2022-08-19T06:14:20;2.33;;;1.75;;
6868;SDS011;3473;42.604;23.496;2022-08-19T06:15:52;2.97;;;1.80;;
6868;SDS011;3473;42.604;23.496;2022-08-19T06:17:24;2.50;;;1.60;;
6868;SDS011;3473;42.604;23.496;2022-08-19T06:18:59;3.17;;;2.08;;
6868;SDS011;3473;42.604;23.496;2022-08-19T06:20:33;3.03;;;2.00;;
6868;SDS011;3473;42.604;23.496;2022-08-19T06:22:05;2.28;;;1.70;;
6868;SDS011;3473;42.604;23.496;2022-08-19T06:23:37;2.60;;;1.58;;
6868;SDS011;3473;42.604;23.496;2022-08-19T06:25:10;2.10;;;1.73;;
6868;SDS011;3473;42.604;23.496;2022-08-19T06:26:45;3.50;;;1.58;;
6868;SDS011;3473;42.604;23.496;2022-08-19T06:28:18;2.38;;;1.83;;
6868;SDS011;3473;42.604;23.496;2022-08-19T06:29:50;2.30;;;1.42;;
6868;SDS011;3473;42.604;23.496;2022-08-19T06:31:23;4.00;;;1.77;;
6868;SDS011;3473;42.604;23.496;2022-08-19T06:32:57;2.92;;;1.67;;
6868;SDS011;3473;42.604;23.496;2022-08-19T06:34:31;2.22;;;1.80;;
6868;SDS011;3473;42.604;23.496;2022-08-19T06:36:04;2.08;;;1.50;;
6868;SDS011;3473;42.604;23.496;2022-08-19T06:37:35;3.95;;;2.00;;
6868;SDS011;3473;42.604;23.496;2022-08-19T06:39:08;2.33;;;1.77;;
6868;SDS011;3473;42.604;23.496;2022-08-19T06:40:41;2.38;;;1.70;;
6868;SDS011;3473;42.604;23.496;2022-08-19T06:42:13;3.55;;;1.90;;
6868;SDS011;3473;42.604;23.496;2022-08-19T06:43:48;3.90;;;1.77;;
6868;SDS011;3473;42.604;23.496;2022-08-19T06:45:19;3.03;;;1.60;;
6868;SDS011;3473;42.604;23.496;2022-08-19T06:46:51;2.72;;;1.80;;
6868;SDS011;3473;42.604;23.496;2022-08-19T06:48:23;1.77;;;1.55;;
6868;SDS011;3473;42.604;23.496;2022-08-19T06:49:55;2.42;;;1.60;;
6868;SDS011;3473;42.604;23.496;2022-08-19T06:51:30;1.90;;;1.58;;
6868;SDS011;3473;42.604;23.496;2022-08-19T06:53:04;1.27;;;1.17;;
6868;SDS011;3473;42.604;23.496;2022-08-19T06:54:35;4.43;;;2.10;;
6868;SDS011;3473;42.604;23.496;2022-08-19T06:56:07;1.80;;;1.52;;
6868;SDS011;3473;42.604;23.496;2022-08-19T06:57:39;3.05;;;1.70;;
6868;SDS011;3473;42.604;23.496;2022-08-19T06:59:13;2.53;;;1.27;;
6868;SDS011;3473;42.604;23.496;2022-08-19T07:00:47;2.83;;;1.55;;
6868;SDS011;3473;42.604;23.496;2022-08-19T07:02:20;2.97;;;1.75;;
6868;SDS011;3473;42.604;23.496;2022-08-19T07:03:56;3.97;;;1.95;;
6868;SDS011;3473;42.604;23.496;2022-08-19T07:05:29;2.13;;;1.60;;
6868;SDS011;3473;42.604;23.496;2022-08-19T07:07:02;3.35;;;1.73;;
6868;SDS011;3473;42.604;23.496;2022-08-19T07:08:37;2.58;;;1.70;;
6868;SDS011;3473;42.604;23.496;2022-08-19T07:10:11;3.55;;;2.20;;
6868;SDS011;3473;42.604;23.496;2022-08-19T07:11:43;2.65;;;1.73;;
6868;SDS011;3473;42.604;23.496;2022-08-19T07:13:15;5.10;;;1.70;;
6868;SDS011;3473;42.604;23.496;2022-08-19T07:14:47;2.83;;;1.77;;
6868;SDS011;3473;42.604;23.496;2022-08-19T07:16:19;4.25;;;2.60;;
6868;SDS011;3473;42.604;23.496;2022-08-19T07:17:51;3.85;;;2.20;;
6868;SDS011;3473;42.604;23.496;2022-08-19T07:19:24;2.03;;;1.70;;
6868;SDS011;3473;42.604;23.496;2022-08-19T07:21:03;3.00;;;2.08;;
6868;SDS011;3473;42.604;23.496;2022-08-19T07:22:35;2.97;;;1.92;;
6868;SDS011;3473;42.604;23.496;2022-08-19T07:24:07;2.83;;;2.10;;
6868;SDS011;3473;42.604;23.496;2022-08-19T07:25:40;2.75;;;1.95;;
6868;SDS011;3473;42.604;23.496;2022-08-19T07:27:13;1.90;;;1.30;;
6868;SDS011;3473;42.604;23.496;2022-08-19T07:28:45;2.28;;;1.90;;
6868;SDS011;3473;42.604;23.496;2022-08-19T07:30:18;2.30;;;2.08;;
6868;SDS011;3473;42.604;23.496;2022-08-19T07:31:50;3.53;;;2.10;;
6868;SDS011;3473;42.604;23.496;2022-08-19T07:33:23;4.07;;;2.50;;
6868;SDS011;3473;42.604;23.496;2022-08-19T07:34:56;3.47;;;1.92;;
6868;SDS011;3473;42.604;23.496;2022-08-19T07:36:32;1.92;;;1.48;;
6868;SDS011;3473;42.604;23.496;2022-08-19T07:38:05;2.10;;;1.83;;
6868;SDS011;3473;42.604;23.496;2022-08-19T07:39:37;3.22;;;1.98;;
6868;SDS011;3473;42.604;23.496;2022-08-19T07:41:10;1.90;;;1.50;;
6868;SDS011;3473;42.604;23.496;2022-08-19T07:42:42;3.15;;;1.50;;
6868;SDS011;3473;42.604;23.496;2022-08-19T07:44:14;3.13;;;1.80;;
6868;SDS011;3473;42.604;23.496;2022-08-19T07:45:48;2.88;;;2.05;;
6868;SDS011;3473;42.604;23.496;2022-08-19T07:47:20;2.40;;;1.63;;
6868;SDS011;3473;42.604;23.496;2022-08-19T07:48:52;2.50;;;1.50;;
6868;SDS011;3473;42.604;23.496;2022-08-19T07:50:24;2.30;;;1.50;;
6868;SDS011;3473;42.604;23.496;2022-08-19T07:51:58;2.17;;;1.48;;
6868;SDS011;3473;42.604;23.496;2022-08-19T07:53:32;2.47;;;1.70;;
6868;SDS011;3473;42.604;23.496;2022-08-19T07:55:04;3.10;;;1.67;;
6868;SDS011;3473;42.604;23.496;2022-08-19T07:56:38;2.20;;;1.73;;
6868;SDS011;3473;42.604;23.496;2022-08-19T07:58:10;2.47;;;1.75;;
6868;SDS011;3473;42.604;23.496;2022-08-19T07:59:43;2.78;;;2.00;;
6868;SDS011;3473;42.604;23.496;2022-08-19T08:01:17;1.60;;;1.50;;
6868;SDS011;3473;42.604;23.496;2022-08-19T08:02:50;1.98;;;1.60;;
6868;SDS011;3473;42.604;23.496;2022-08-19T08:04:22;2.83;;;1.60;;
6868;SDS011;3473;42.604;23.496;2022-08-19T08:06:12;3.30;;;2.03;;
6868;SDS011;3473;42.604;23.496;2022-08-19T08:08:05;3.42;;;1.80;;
6868;SDS011;3473;42.604;23.496;2022-08-19T08:10:06;1.95;;;1.73;;
6868;SDS011;3473;42.604;23.496;2022-08-19T08:11:40;3.45;;;1.85;;
6868;SDS011;3473;42.604;23.496;2022-08-19T08:13:18;2.65;;;1.80;;
6868;SDS011;3473;42.604;23.496;2022-08-19T08:14:51;2.40;;;1.67;;
6868;SDS011;3473;42.604;23.496;2022-08-19T08:16:25;2.60;;;1.70;;
6868;SDS011;3473;42.604;23.496;2022-08-19T08:17:59;2.70;;;1.70;;
6868;SDS011;3473;42.604;23.496;2022-08-19T08:19:32;3.13;;;2.00;;
6868;SDS011;3473;42.604;23.496;2022-08-19T08:21:04;2.72;;;1.98;;
6868;SDS011;3473;42.604;23.496;2022-08-19T08:22:36;2.95;;;2.00;;
6868;SDS011;3473;42.604;23.496;2022-08-19T08:24:27;2.50;;;1.50;;
6868;SDS011;3473;42.604;23.496;2022-08-19T08:26:00;2.67;;;1.73;;
6868;SDS011;3473;42.604;23.496;2022-08-19T08:27:35;2.03;;;1.67;;
6868;SDS011;3473;42.604;23.496;2022-08-19T08:29:09;2.33;;;1.77;;
6868;SDS011;3473;42.604;23.496;2022-08-19T08:30:42;2.17;;;1.33;;
6868;SDS011;3473;42.604;23.496;2022-08-19T08:32:17;2.42;;;1.80;;
6868;SDS011;3473;42.604;23.496;2022-08-19T08:33:49;2.22;;;1.60;;
6868;SDS011;3473;42.604;23.496;2022-08-19T08:35:23;1.95;;;1.75;;
6868;SDS011;3473;42.604;23.496;2022-08-19T08:36:55;2.05;;;1.70;;
6868;SDS011;3473;42.604;23.496;2022-08-19T08:38:27;3.38;;;1.83;;
6868;SDS011;3473;42.604;23.496;2022-08-19T08:40:03;2.42;;;1.85;;
6868;SDS011;3473;42.604;23.496;2022-08-19T08:41:40;2.70;;;1.70;;
6868;SDS011;3473;42.604;23.496;2022-08-19T08:43:22;1.92;;;1.60;;
6868;SDS011;3473;42.604;23.496;2022-08-19T08:45:02;1.98;;;1.65;;
6868;SDS011;3473;42.604;23.496;2022-08-19T08:46:41;2.22;;;1.55;;
6868;SDS011;3473;42.604;23.496;2022-08-19T08:48:18;1.55;;;1.30;;
6868;SDS011;3473;42.604;23.496;2022-08-19T08:50:00;1.80;;;1.50;;
6868;SDS011;3473;42.604;23.496;2022-08-19T08:51:37;2.83;;;1.97;;
6868;SDS011;3473;42.604;23.496;2022-08-19T08:53:13;1.80;;;1.65;;
6868;SDS011;3473;42.604;23.496;2022-08-19T08:54:50;1.65;;;1.55;;
6868;SDS011;3473;42.604;23.496;2022-08-19T08:56:27;2.03;;;1.58;;
6868;SDS011;3473;42.604;23.496;2022-08-19T08:58:01;2.47;;;1.60;;
6868;SDS011;3473;42.604;23.496;2022-08-19T08:59:36;2.47;;;1.70;;
6868;SDS011;3473;42.604;23.496;2022-08-19T09:01:11;1.88;;;1.50;;
6868;SDS011;3473;42.604;23.496;2022-08-19T09:02:43;1.90;;;1.63;;
6868;SDS011;3473;42.604;23.496;2022-08-19T09:04:15;2.08;;;1.45;;
6868;SDS011;3473;42.604;23.496;2022-08-19T09:05:49;1.67;;;1.58;;
6868;SDS011;3473;42.604;23.496;2022-08-19T09:07:31;2.25;;;1.60;;
6868;SDS011;3473;42.604;23.496;2022-08-19T09:09:14;2.20;;;1.73;;
6868;SDS011;3473;42.604;23.496;2022-08-19T09:10:51;3.78;;;1.52;;
6868;SDS011;3473;42.604;23.496;2022-08-19T09:12:27;1.63;;;1.30;;
6868;SDS011;3473;42.604;23.496;2022-08-19T09:14:10;1.70;;;1.60;;
6868;SDS011;3473;42.604;23.496;2022-08-19T09:15:51;1.90;;;1.40;;
6868;SDS011;3473;42.604;23.496;2022-08-19T09:17:29;1.70;;;1.50;;
6868;SDS011;3473;42.604;23.496;2022-08-19T09:19:04;1.83;;;1.38;;
6868;SDS011;3473;42.604;23.496;2022-08-19T09:20:37;1.90;;;1.33;;
6868;SDS011;3473;42.604;23.496;2022-08-19T09:22:09;1.58;;;1.40;;
6868;SDS011;3473;42.604;23.496;2022-08-19T09:23:40;1.60;;;1.42;;
6868;SDS011;3473;42.604;23.496;2022-08-19T09:25:14;2.03;;;1.52;;
6868;SDS011;3473;42.604;23.496;2022-08-19T09:26:47;1.45;;;1.20;;
6868;SDS011;3473;42.604;23.496;2022-08-19T09:28:20;1.75;;;1.45;;
6868;SDS011;3473;42.604;23.496;2022-08-19T09:29:52;2.20;;;1.45;;
6868;SDS011;3473;42.604;23.496;2022-08-19T09:31:27;2.28;;;1.77;;
6868;SDS011;3473;42.604;23.496;2022-08-19T09:33:02;1.50;;;1.25;;